Historyczne dane pomiarowe

Dodano dane terminowe – wersja testowa.

Dane z okresu 1951-2019

Wersja bazy: 1.34 [2019-03-16, lista zmian], aktualizacja planowana na 2019-04-15

Dane meteo z obszaru Polski uzyskane na podstawie danych udostępnionych przez Instytut Meteorologii i Gospodarki Wodnej – Państwowy Instytut Badawczy.

 

Wybierz Datę:    

       

TemperaturaWilgotnośćWiatrCiśnienieOpadyŚniegCzas trwania zjawisk
 Stacja t tx tn tng RH VA  wxwx mslp ppp RRR   cm mm wxwxwxwxwxwxwx
1957-10-11 9.8 20.3 2.0 1.5 79.3- 0.0 0.7---- 0.0------------
1957-10-12 11.6 19.9 1.8 -0.1 79.3- 3.7 0.0---- 0.0------------
1957-10-13 11.5 18.6 8.5 10.5 85.5- 3.7 0.3---- 0.0------------
1957-10-14 10.8 18.3 2.3 1.1 91.3- 4.0 0.0---- 0.0------------
1957-10-15 10.0 13.3 8.6 7.5 85.0- 5.0 0.3---- 0.0------------
1957-10-16 8.7 17.4 3.9 1.9 86.0- 0.0 0.3---- 0.0------------
1957-10-17 11.1 21.2 3.2 0.9 78.3- 0.0 2.3---- 0.0------------
1957-10-18 13.0 19.8 5.8 5.0 70.8- 6.7 2.3---- 0.0------------
1957-10-19 16.6 23.0 8.8 4.1 48.5- 2.3 5.0---- 0.0------------
1957-10-20 10.5 17.7 8.2 4.6 88.5- 6.7 2.3---- 10.2------------
1957-10-21 6.9 10.8 4.3 6.9 91.5- 5.0 0.3---- 0.0------------
1957-10-22 7.8 11.6 2.1 -0.6 92.8- 7.3 0.0---- 10.5------------
1957-10-23 8.3 9.7 7.5 7.8 92.0- 8.0 1.0---- 6.7------------
1957-10-24 8.7 14.7 1.7 -1.1 77.8- 4.3 0.7---- 0.0------------
1957-10-25 6.5 13.4 3.7 5.2 83.5- 3.7 0.3---- 0.0------------
1957-10-26 6.5 15.3 -0.7 -2.6 89.0- 2.0 0.0---- 0.0------------
1957-10-27 7.2 16.6 0.3 -2.0 86.5- 0.0 0.3---- 0.0------------
1957-10-28 8.3 13.3 2.9 0.2 86.3- 4.7 0.0---- 0.0------------
1957-10-29 6.7 15.0 0.8 -0.8 91.8- 1.7 0.3---- 0.0------------
1957-10-30 7.4 16.5 1.0 -1.0 88.8- 4.7 0.0---- 0.0------------
1957-10-31 8.4 17.1 2.9 0.5 86.5- 2.0 0.0---- 0.0------------
1957-11-01 8.5 17.5 1.8 -1.5 87.3- 0.0 0.7---- 0.0------------
1957-11-02 8.2 16.3 2.0 0.3 89.5- 3.3 0.3---- 0.1------------
1957-11-03 9.5 15.1 4.2 2.0 91.5- 4.3 0.0---- 0.0------------
1957-11-04 13.1 19.4 6.7 3.5 72.5- 1.3 3.0---- 0.0------------
1957-11-05 14.7 17.9 7.7 3.9 62.0- 0.7 7.7---- 0.0------------
1957-11-06 14.7 17.9 12.2 10.6 61.8- 4.0 7.3---- 0.0------------
1957-11-07 13.5 17.5 11.4 7.1 65.0- 5.7 3.3---- 0.0------------
1957-11-08 12.6 14.9 11.0- 68.5- 5.0 1.3---- 0.0------------
1957-11-09 12.5 17.8 10.2 7.2 70.5- 5.0 1.7---- 0.0------------
111.7 ms

 

Źródłem pochodzenia danych jest Instytut Meteorologii i Gospodarki Wodnej – Państwowy Instytut Badawczy. Dane Instytutu Meteorologii i Gospodarki Wodnej – Państwowego Instytutu Badawczego zostały przetworzone.

Dane źródłowe można odnaleźć na stronie https://dane.imgw.pl